Time;durP1;ratioP1;P1;durP2;ratioP2;P2;SDS_P1;SDS_P2;PMS_P1;PMS_P2;Temp;Humidity;BMP_temperature;BMP_pressure;BME280_temperature;BME280_humidity;BME280_pressure;Samples;Min_cycle;Max_cycle;Signal;HPM_P1;HPM_P2
2023/01/01 00:00:41;;;;;;;28.85;16.83;;;14.00;99.90;;;;;;5022300;28;89931;-34
2023/01/01 00:03:07;;;;;;;37.17;19.42;;;13.90;99.90;;;;;;5012763;28;89133;-33
2023/01/01 00:05:33;;;;;;;33.47;20.30;;;13.80;99.90;;;;;;5007158;28;89555;-35
2023/01/01 00:07:58;;;;;;;28.50;20.52;;;13.60;99.90;;;;;;5000488;28;90302;-33
2023/01/01 00:10:28;;;;;;;32.95;21.75;;;13.60;99.90;;;;;;5009688;28;89559;-34
2023/01/01 00:12:58;;;;;;;33.03;23.10;;;13.60;99.90;;;;;;4999935;28;89540;-34
2023/01/01 00:15:25;;;;;;;29.25;21.90;;;13.50;99.90;;;;;;5006436;28;88337;-37
2023/01/01 00:17:50;;;;;;;25.02;21.67;;;13.50;99.90;;;;;;5012088;28;89042;-33
2023/01/01 00:20:16;;;;;;;30.48;21.73;;;13.50;99.90;;;;;;5008569;28;89275;-34
2023/01/01 00:22:42;;;;;;;30.13;21.73;;;13.50;99.90;;;;;;4989891;28;89149;-33
2023/01/01 00:25:10;;;;;;;30.35;22.10;;;13.50;99.90;;;;;;5001958;28;87689;-32
2023/01/01 00:27:36;;;;;;;27.55;20.05;;;13.50;99.90;;;;;;4993207;28;89832;-33
2023/01/01 00:30:03;;;;;;;26.25;20.73;;;13.50;99.90;;;;;;4997809;28;90365;-34
2023/01/01 00:32:28;;;;;;;26.15;21.50;;;13.60;99.90;;;;;;5018424;28;89835;-33
2023/01/01 00:34:54;;;;;;;33.20;22.05;;;13.50;99.90;;;;;;5023941;28;87622;-32
2023/01/01 00:37:20;;;;;;;30.15;22.48;;;13.50;99.90;;;;;;5025110;28;90808;-32
2023/01/01 00:39:45;;;;;;;30.23;23.08;;;13.50;99.90;;;;;;5026330;28;89626;-32
2023/01/01 00:42:11;;;;;;;33.00;24.77;;;13.50;99.90;;;;;;5023418;28;89504;-33
2023/01/01 00:44:36;;;;;;;28.85;23.50;;;13.50;99.90;;;;;;5027915;28;88574;-32
2023/01/01 00:47:02;;;;;;;30.55;24.75;;;13.40;99.90;;;;;;5022486;28;90720;-33
2023/01/01 00:49:28;;;;;;;35.35;26.45;;;13.40;99.90;;;;;;5027043;28;89469;-32
2023/01/01 00:51:53;;;;;;;39.72;26.40;;;13.40;99.90;;;;;;5024274;28;89553;-33
2023/01/01 00:54:19;;;;;;;40.63;26.58;;;13.40;99.90;;;;;;5025135;28;88424;-33
2023/01/01 00:56:45;;;;;;;33.10;27.48;;;13.30;99.90;;;;;;5026031;28;90284;-35
2023/01/01 00:59:10;;;;;;;34.38;27.67;;;13.30;99.90;;;;;;5023501;28;88493;-32
2023/01/01 01:01:36;;;;;;;37.55;27.90;;;13.30;99.90;;;;;;5026887;28;89407;-33
2023/01/01 01:04:02;;;;;;;42.22;30.33;;;13.40;99.90;;;;;;5022638;28;87726;-33
2023/01/01 01:06:28;;;;;;;33.10;26.98;;;13.40;99.90;;;;;;5026668;28;89794;-32
2023/01/01 01:08:54;;;;;;;36.22;25.88;;;13.60;99.90;;;;;;5023737;28;90287;-34
2023/01/01 01:11:22;;;;;;;32.63;25.95;;;13.60;99.90;;;;;;5025202;28;89691;-33
2023/01/01 01:13:50;;;;;;;38.28;26.45;;;13.60;99.90;;;;;;5025729;28;87441;-33
2023/01/01 01:16:22;;;;;;;28.05;21.63;;;13.60;99.90;;;;;;5023541;28;88897;-33
2023/01/01 01:18:52;;;;;;;35.50;21.73;;;13.60;99.90;;;;;;5025889;28;90762;-33
2023/01/01 01:21:21;;;;;;;34.67;23.73;;;13.60;99.90;;;;;;5022774;28;90598;-34
2023/01/01 01:23:47;;;;;;;32.90;21.90;;;13.60;99.90;;;;;;5019780;28;88586;-35
2023/01/01 01:26:27;;;;;;;26.80;20.52;;;13.60;99.90;;;;;;4996338;28;89904;-33
2023/01/01 01:28:52;;;;;;;24.75;20.73;;;13.60;99.90;;;;;;4993983;28;89581;-32
2023/01/01 01:31:19;;;;;;;33.58;21.52;;;13.70;99.90;;;;;;4993288;28;89545;-32
2023/01/01 01:33:46;;;;;;;30.70;21.17;;;13.70;99.90;;;;;;4993488;28;87958;-32
2023/01/01 01:36:13;;;;;;;27.10;20.92;;;13.70;99.90;;;;;;4993082;28;90469;-32
2023/01/01 01:38:38;;;;;;;22.88;18.55;;;13.70;99.90;;;;;;4993222;28;90166;-34
2023/01/01 01:41:04;;;;;;;31.23;20.80;;;13.70;99.90;;;;;;4993670;28;89861;-32
2023/01/01 01:43:33;;;;;;;32.88;21.85;;;13.70;99.90;;;;;;4992753;28;88587;-34
2023/01/01 01:46:29;;;;;;;22.55;16.92;;;13.70;99.90;;;;;;4993267;28;90390;-35
2023/01/01 01:49:00;;;;;;;29.95;21.85;;;13.60;99.90;;;;;;4992989;28;89849;-33
2023/01/01 01:51:33;;;;;;;35.67;20.80;;;13.60;99.90;;;;;;4975291;28;89248;-35
2023/01/01 01:54:07;;;;;;;30.80;23.20;;;13.60;99.90;;;;;;4993755;28;88071;-35
2023/01/01 01:56:46;;;;;;;25.27;20.50;;;13.60;99.90;;;;;;4992703;28;90262;-32
2023/01/01 01:59:12;;;;;;;24.13;21.52;;;13.50;99.90;;;;;;5000684;28;89573;-33
2023/01/01 02:01:38;;;;;;;27.52;22.90;;;13.50;99.90;;;;;;4998543;28;89173;-32
2023/01/01 02:04:04;;;;;;;31.80;22.10;;;13.50;99.90;;;;;;4992996;28;87520;-32
2023/01/01 02:06:31;;;;;;;30.17;21.67;;;13.50;99.90;;;;;;4992376;28;90037;-33
2023/01/01 02:09:00;;;;;;;26.90;21.92;;;13.40;99.90;;;;;;4992345;28;90144;-33
2023/01/01 02:11:26;;;;;;;32.80;21.92;;;13.40;99.90;;;;;;4992508;28;89819;-33
2023/01/01 02:13:53;;;;;;;29.92;23.10;;;13.30;99.90;;;;;;4992517;28;88605;-33
2023/01/01 02:16:24;;;;;;;26.55;21.98;;;13.30;99.90;;;;;;4992332;28;88750;-33
2023/01/01 02:19:02;;;;;;;31.27;24.05;;;13.30;99.90;;;;;;4992771;28;90032;-32
2023/01/01 02:21:51;;;;;;;35.80;25.30;;;13.20;99.90;;;;;;4991808;28;89264;-33
2023/01/01 02:24:44;;;;;;;25.40;22.42;;;13.20;99.90;;;;;;5006855;28;88376;-33
2023/01/01 02:27:54;;;;;;;29.75;22.67;;;13.30;99.90;;;;;;4991683;28;89710;-33
2023/01/01 02:30:20;;;;;;;28.25;20.52;;;13.30;99.90;;;;;;4960827;28;90147;-32
2023/01/01 02:32:50;;;;;;;28.90;20.55;;;13.50;99.90;;;;;;4992411;28;87866;-33
2023/01/01 02:35:35;;;;;;;30.67;20.50;;;13.50;99.90;;;;;;4991915;28;88475;-32
2023/01/01 02:38:05;;;;;;;24.25;19.42;;;13.50;99.90;;;;;;4994026;28;90180;-33
2023/01/01 02:40:34;;;;;;;24.50;20.70;;;13.50;99.90;;;;;;4995791;28;89746;-33
2023/01/01 02:43:01;;;;;;;27.13;20.65;;;13.60;99.90;;;;;;4995926;28;89769;-33
2023/01/01 02:45:27;;;;;;;25.33;19.90;;;13.60;99.90;;;;;;4996321;28;88527;-32
2023/01/01 02:47:52;;;;;;;27.75;22.02;;;13.50;99.90;;;;;;4995744;28;92318;-33
2023/01/01 02:50:22;;;;;;;24.73;20.25;;;13.60;99.90;;;;;;4995685;28;89833;-36
2023/01/01 02:52:51;;;;;;;25.60;17.25;;;13.50;99.90;;;;;;4995461;28;89276;-33
2023/01/01 02:55:58;;;;;;;21.25;18.42;;;13.60;99.90;;;;;;4996053;28;87641;-32
2023/01/01 03:01:26;;;;;;;18.63;14.13;;;13.50;99.90;;;;;;4995475;28;90702;-33
2023/01/01 03:04:11;;;;;;;24.75;14.07;;;13.50;99.90;;;;;;4995741;28;90274;-33
2023/01/01 03:06:53;;;;;;;17.15;12.75;;;13.50;99.90;;;;;;4995432;28;88499;-32
2023/01/01 03:09:58;;;;;;;19.98;12.80;;;13.50;99.90;;;;;;4995945;28;90120;-33
2023/01/01 03:12:42;;;;;;;15.52;11.25;;;13.50;99.90;;;;;;4995368;28;89622;-33
2023/01/01 03:15:28;;;;;;;14.15;11.10;;;13.60;99.90;;;;;;4995828;28;88979;-35
2023/01/01 03:18:00;;;;;;;17.90;9.32;;;13.60;99.90;;;;;;4995911;28;89081;-33
2023/01/01 03:20:31;;;;;;;14.38;9.27;;;13.70;99.90;;;;;;4997288;28;90425;-32
2023/01/01 03:23:02;;;;;;;12.30;10.00;;;13.80;99.90;;;;;;5012315;28;89657;-33
2023/01/01 03:25:32;;;;;;;17.13;8.98;;;13.70;99.90;;;;;;5005506;28;88200;-33
2023/01/01 03:28:10;;;;;;;15.98;8.95;;;13.80;99.90;;;;;;4995535;28;88112;-33
2023/01/01 03:30:38;;;;;;;18.35;7.97;;;13.90;99.90;;;;;;4995656;28;90402;-33
2023/01/01 03:33:14;;;;;;;8.52;6.07;;;13.90;99.90;;;;;;4995864;28;89780;-33
2023/01/01 03:35:57;;;;;;;24.73;7.03;;;13.90;99.90;;;;;;4994710;28;89663;-32
2023/01/01 03:38:33;;;;;;;11.93;6.72;;;14.00;99.90;;;;;;4996037;28;87508;-35
2023/01/01 03:41:09;;;;;;;9.55;6.40;;;13.90;99.90;;;;;;4996024;28;89311;-34
2023/01/01 03:43:39;;;;;;;8.98;5.82;;;13.90;99.90;;;;;;4995502;28;90735;-35
2023/01/01 03:46:07;;;;;;;13.20;5.38;;;13.90;99.90;;;;;;4996163;28;89490;-34
2023/01/01 03:48:54;;;;;;;15.50;5.05;;;14.00;99.90;;;;;;4996335;28;88307;-33
2023/01/01 03:51:41;;;;;;;11.45;4.63;;;14.10;99.90;;;;;;5013604;28;90747;-32
2023/01/01 03:54:32;;;;;;;8.35;4.97;;;14.00;99.90;;;;;;5018641;28;90631;-33
2023/01/01 03:57:07;;;;;;;10.98;4.68;;;14.10;99.90;;;;;;5030806;28;89150;-33
2023/01/01 03:59:49;;;;;;;7.10;5.07;;;14.10;99.90;;;;;;5018430;28;88671;-33
2023/01/01 04:02:19;;;;;;;14.10;4.93;;;14.10;99.90;;;;;;5015405;28;89138;-34
2023/01/01 04:04:47;;;;;;;10.75;4.18;;;14.10;99.90;;;;;;4997016;28;89347;-33
2023/01/01 04:07:12;;;;;;;9.80;4.22;;;14.10;99.90;;;;;;5015447;28;89651;-33
2023/01/01 04:09:41;;;;;;;9.88;5.07;;;14.20;99.90;;;;;;5031093;28;88775;-34
2023/01/01 04:12:08;;;;;;;19.80;4.32;;;14.20;99.90;;;;;;5035169;28;90437;-33
2023/01/01 04:14:33;;;;;;;7.55;4.15;;;14.20;99.90;;;;;;5021004;28;89807;-33
2023/01/01 04:17:00;;;;;;;6.75;4.07;;;14.20;99.90;;;;;;5014885;28;92105;-33
2023/01/01 04:19:26;;;;;;;11.43;3.72;;;14.20;99.90;;;;;;5015317;28;88602;-33
2023/01/01 04:21:52;;;;;;;12.43;3.67;;;14.20;99.90;;;;;;5015163;28;90042;-34
2023/01/01 04:24:18;;;;;;;5.55;3.63;;;14.30;99.90;;;;;;5015009;28;89741;-34
2023/01/01 04:26:43;;;;;;;10.45;4.30;;;14.20;99.90;;;;;;5028541;28;89079;-33
2023/01/01 04:29:09;;;;;;;4.93;3.60;;;14.20;99.90;;;;;;5014963;28;88609;-33
2023/01/01 04:31:35;;;;;;;8.27;4.22;;;14.20;99.90;;;;;;5014600;28;89916;-34
2023/01/01 04:34:00;;;;;;;6.65;4.32;;;14.20;99.90;;;;;;5014565;28;89867;-32
2023/01/01 04:36:26;;;;;;;6.90;3.88;;;14.20;99.90;;;;;;5014690;28;88564;-34
2023/01/01 04:38:52;;;;;;;9.32;3.40;;;14.20;99.90;;;;;;5014384;28;88078;-33
2023/01/01 04:41:18;;;;;;;5.97;3.33;;;14.20;99.90;;;;;;5015000;28;90440;-35
2023/01/01 04:43:51;;;;;;;6.45;3.75;;;14.20;99.90;;;;;;5013747;28;90431;-33
2023/01/01 04:46:19;;;;;;;7.53;3.40;;;14.20;99.90;;;;;;5014778;28;90513;-32
2023/01/01 04:48:45;;;;;;;;;;;14.20;99.90;;;;;;5015164;28;87756;-32
2023/01/01 04:51:12;;;;;;;4.97;2.83;;;14.20;99.90;;;;;;5015675;28;88895;-34
2023/01/01 04:53:38;;;;;;;7.10;3.67;;;14.20;99.90;;;;;;5014548;28;91166;-32
2023/01/01 04:56:15;;;;;;;12.27;3.38;;;14.20;99.90;;;;;;5014612;28;88569;-33
2023/01/01 04:58:41;;;;;;;6.65;4.18;;;14.30;99.90;;;;;;5014306;28;87499;-33
2023/01/01 05:01:13;;;;;;;5.57;3.08;;;14.20;99.90;;;;;;5031654;27;90161;-33
2023/01/01 05:03:39;;;;;;;5.93;3.92;;;14.30;99.90;;;;;;5023588;28;89159;-33
2023/01/01 05:06:08;;;;;;;10.05;3.83;;;14.30;99.90;;;;;;5013923;28;89360;-33
2023/01/01 05:08:36;;;;;;;4.93;3.00;;;14.30;99.90;;;;;;5014249;28;87963;-33
2023/01/01 05:11:02;;;;;;;8.85;3.05;;;14.30;99.90;;;;;;5014168;28;90261;-33
2023/01/01 05:13:28;;;;;;;4.93;2.72;;;14.40;99.90;;;;;;5014263;28;89709;-34
2023/01/01 05:15:54;;;;;;;6.57;3.55;;;14.30;99.90;;;;;;5013652;28;89368;-32
2023/01/01 05:18:19;;;;;;;9.60;3.08;;;14.40;99.90;;;;;;5014545;28;87439;-34
2023/01/01 05:20:45;;;;;;;8.63;3.28;;;14.40;99.90;;;;;;5013859;28;90429;-32
2023/01/01 05:23:10;;;;;;;10.07;3.13;;;14.40;99.90;;;;;;5013222;28;89846;-34
2023/01/01 05:25:36;;;;;;;5.00;2.85;;;14.30;99.90;;;;;;5013827;28;89570;-33
2023/01/01 05:28:02;;;;;;;6.40;3.10;;;14.30;99.90;;;;;;5014140;28;87716;-33
2023/01/01 05:30:27;;;;;;;3.47;2.75;;;14.30;99.90;;;;;;5014006;28;90270;-34
2023/01/01 05:32:53;;;;;;;6.43;2.45;;;14.30;99.90;;;;;;5013194;28;90106;-32
2023/01/01 05:35:18;;;;;;;6.18;3.58;;;14.20;99.90;;;;;;5013551;28;90539;-33
2023/01/01 05:37:44;;;;;;;7.85;3.40;;;14.20;99.90;;;;;;4995615;28;88059;-33
2023/01/01 05:40:10;;;;;;;8.65;3.40;;;14.10;99.90;;;;;;5014127;28;90239;-33
2023/01/01 05:42:35;;;;;;;3.50;2.38;;;14.00;99.90;;;;;;5013918;28;90186;-33
2023/01/01 05:45:02;;;;;;;6.72;2.40;;;14.00;99.90;;;;;;5013927;28;87980;-33
2023/01/01 05:47:28;;;;;;;4.15;2.08;;;14.10;99.90;;;;;;5014439;28;87537;-33
2023/01/01 05:49:53;;;;;;;4.05;1.85;;;14.10;99.90;;;;;;5013605;28;90184;-33
2023/01/01 05:52:19;;;;;;;3.25;2.58;;;14.10;99.90;;;;;;5013828;28;90017;-33
2023/01/01 05:54:45;;;;;;;7.28;2.50;;;14.00;99.90;;;;;;5013013;28;88770;-33
2023/01/01 05:57:10;;;;;;;2.08;1.80;;;14.00;99.90;;;;;;5012226;28;88866;-33
2023/01/01 05:59:36;;;;;;;5.30;1.92;;;14.10;99.90;;;;;;5018527;28;88839;-32
2023/01/01 06:02:01;;;;;;;2.80;1.52;;;14.00;99.90;;;;;;5022348;28;89744;-34
2023/01/01 06:04:27;;;;;;;2.90;2.10;;;14.00;99.90;;;;;;5012959;28;89117;-33
2023/01/01 06:06:52;;;;;;;3.58;2.05;;;14.00;99.90;;;;;;5012976;28;87743;-33
2023/01/01 06:09:18;;;;;;;2.92;1.67;;;14.00;99.90;;;;;;5012919;28;90229;-32
2023/01/01 06:11:44;;;;;;;3.60;1.42;;;13.90;99.90;;;;;;5013287;28;89995;-33
2023/01/01 06:14:09;;;;;;;4.32;2.03;;;13.80;99.90;;;;;;5013867;28;89273;-32
2023/01/01 06:16:35;;;;;;;7.07;1.35;;;13.80;99.90;;;;;;5013085;28;87875;-34
2023/01/01 06:19:00;;;;;;;2.10;1.63;;;13.80;99.90;;;;;;5013071;28;89625;-33
2023/01/01 06:21:28;;;;;;;7.78;1.77;;;13.80;99.90;;;;;;5012767;28;90430;-32
2023/01/01 06:23:58;;;;;;;3.47;1.70;;;13.80;99.90;;;;;;5013397;28;89287;-32
2023/01/01 06:26:26;;;;;;;4.13;2.15;;;13.70;99.90;;;;;;5013643;28;87807;-32
2023/01/01 06:28:53;;;;;;;6.20;1.80;;;13.60;99.90;;;;;;5012784;28;90325;-33
2023/01/01 06:31:20;;;;;;;2.65;1.63;;;13.60;99.90;;;;;;5012599;28;89512;-33
2023/01/01 06:33:46;;;;;;;3.03;1.80;;;13.50;99.90;;;;;;5013162;28;89428;-32
2023/01/01 06:36:14;;;;;;;6.57;1.90;;;13.60;99.90;;;;;;5012807;28;88474;-33
2023/01/01 06:38:42;;;;;;;1.40;0.82;;;13.50;99.90;;;;;;5013096;28;90189;-32
2023/01/01 06:41:15;;;;;;;;;;;13.50;99.90;;;;;;5013323;28;89374;-34
2023/01/01 06:43:41;;;;;;;6.70;1.80;;;13.40;99.90;;;;;;5014390;28;88320;-33
2023/01/01 06:46:28;;;;;;;2.55;1.40;;;13.40;99.90;;;;;;5013198;28;88402;-33
2023/01/01 06:48:56;;;;;;;4.22;1.88;;;13.40;99.90;;;;;;5012675;28;91759;-33
2023/01/01 06:51:24;;;;;;;4.88;1.52;;;13.40;99.90;;;;;;5012952;28;88783;-32
2023/01/01 06:53:51;;;;;;;11.43;3.42;;;13.40;99.90;;;;;;5011650;28;89288;-33
2023/01/01 06:56:17;;;;;;;6.60;2.72;;;13.30;99.90;;;;;;5013003;28;87981;-34
2023/01/01 06:58:43;;;;;;;3.97;2.28;;;13.30;99.90;;;;;;5012443;28;90156;-34
2023/01/01 07:01:18;;;;;;;5.63;2.33;;;13.30;99.90;;;;;;5012826;28;90604;-34
2023/01/01 07:03:48;;;;;;;4.63;2.00;;;13.40;99.90;;;;;;5012955;28;87592;-33
2023/01/01 07:06:14;;;;;;;8.15;1.92;;;13.40;99.90;;;;;;5013101;28;87625;-33
2023/01/01 07:08:39;;;;;;;11.00;2.03;;;13.30;99.90;;;;;;5012600;28;89206;-34
2023/01/01 07:11:05;;;;;;;4.55;2.33;;;13.30;99.90;;;;;;5011822;28;90531;-33
2023/01/01 07:13:31;;;;;;;6.75;2.33;;;13.30;99.90;;;;;;5012817;28;88901;-34
2023/01/01 07:15:57;;;;;;;4.95;1.90;;;13.30;99.90;;;;;;5012852;28;88112;-32
2023/01/01 07:18:23;;;;;;;5.68;1.88;;;13.30;99.90;;;;;;5012464;28;90045;-33
2023/01/01 07:20:57;;;;;;;4.15;2.25;;;13.30;99.90;;;;;;5012127;28;89975;-33
2023/01/01 07:23:24;;;;;;;6.43;2.83;;;13.20;99.90;;;;;;5013138;28;89590;-35
2023/01/01 07:25:51;;;;;;;2.90;2.08;;;13.20;99.90;;;;;;5015665;28;88023;-33
2023/01/01 07:28:16;;;;;;;4.65;2.22;;;13.10;99.90;;;;;;5015637;28;89982;-33
2023/01/01 07:30:42;;;;;;;6.68;2.47;;;13.10;99.90;;;;;;5015521;28;89456;-33
2023/01/01 07:33:12;;;;;;;4.97;1.75;;;13.10;99.90;;;;;;5015515;28;90023;-33
2023/01/01 07:35:38;;;;;;;10.15;3.08;;;13.10;99.90;;;;;;5015214;28;88430;-33
2023/01/01 07:38:04;;;;;;;6.07;2.20;;;13.10;99.90;;;;;;5015624;28;90147;-33
2023/01/01 07:40:30;;;;;;;10.85;2.63;;;13.20;99.90;;;;;;5015307;28;89738;-33
2023/01/01 07:42:55;;;;;;;4.72;2.40;;;13.20;99.90;;;;;;5015209;28;89862;-32
2023/01/01 07:45:21;;;;;;;8.38;2.58;;;13.10;99.90;;;;;;5015852;28;87772;-33
2023/01/01 07:47:52;;;;;;;7.05;2.35;;;13.10;99.90;;;;;;5015480;28;90190;-35
2023/01/01 07:50:18;;;;;;;4.05;1.92;;;13.00;99.90;;;;;;4997612;28;89901;-33
2023/01/01 07:52:44;;;;;;;6.60;2.30;;;13.00;99.90;;;;;;5015427;28;89437;-34
2023/01/01 07:55:14;;;;;;;4.25;1.90;;;13.00;99.90;;;;;;5015892;28;88289;-33
2023/01/01 07:57:41;;;;;;;5.82;1.83;;;13.10;99.90;;;;;;5014969;28;90652;-32
2023/01/01 08:00:08;;;;;;;3.15;2.20;;;12.90;99.90;;;;;;5014474;28;91062;-33
2023/01/01 08:02:34;;;;;;;7.50;2.70;;;12.90;99.90;;;;;;5014985;28;90888;-37
2023/01/01 08:05:00;;;;;;;7.65;2.38;;;12.90;99.90;;;;;;5015703;28;87725;-33
2023/01/01 08:07:25;;;;;;;6.45;2.25;;;12.80;99.90;;;;;;5014697;28;89834;-34
2023/01/01 08:09:51;;;;;;;2.45;1.80;;;12.90;99.90;;;;;;5014390;28;89283;-34
2023/01/01 08:12:16;;;;;;;6.13;2.78;;;12.90;99.90;;;;;;5014954;28;89556;-32
2023/01/01 08:14:42;;;;;;;3.90;2.30;;;12.90;99.90;;;;;;5014998;28;87574;-33
2023/01/01 08:17:07;;;;;;;6.38;2.13;;;12.90;99.90;;;;;;5015195;28;89883;-33
2023/01/01 08:19:33;;;;;;;10.35;2.75;;;12.80;99.90;;;;;;5009160;28;89676;-33
2023/01/01 08:21:59;;;;;;;6.13;2.75;;;12.70;99.90;;;;;;5013338;28;89981;-35
2023/01/01 08:24:24;;;;;;;7.47;2.45;;;12.70;99.90;;;;;;5014208;28;88174;-32
2023/01/01 08:26:50;;;;;;;4.95;2.55;;;12.70;99.90;;;;;;5013992;28;90227;-33
2023/01/01 08:29:16;;;;;;;7.35;2.47;;;12.70;99.90;;;;;;5016658;28;90051;-33
2023/01/01 08:31:42;;;;;;;4.70;1.75;;;12.80;99.90;;;;;;4997526;28;89534;-33
2023/01/01 08:34:07;;;;;;;3.42;2.22;;;12.70;99.90;;;;;;5013423;28;88593;-33
2023/01/01 08:36:33;;;;;;;8.65;2.38;;;12.70;99.90;;;;;;5012658;28;90045;-33
2023/01/01 08:38:59;;;;;;;5.68;2.13;;;12.70;99.90;;;;;;5025463;28;89621;-33
2023/01/01 08:41:25;;;;;;;8.75;3.00;;;12.70;99.90;;;;;;5029639;28;89605;-32
2023/01/01 08:43:51;;;;;;;7.63;3.35;;;12.70;99.90;;;;;;5024531;28;87882;-33
2023/01/01 08:46:16;;;;;;;5.45;1.75;;;12.70;99.90;;;;;;5018853;28;88445;-33
2023/01/01 08:48:42;;;;;;;9.43;3.08;;;12.70;99.90;;;;;;5013169;28;90490;-32
2023/01/01 08:51:08;;;;;;;9.50;2.50;;;12.60;99.90;;;;;;5013938;28;90438;-32
2023/01/01 08:53:34;;;;;;;7.30;2.70;;;12.60;99.90;;;;;;5017844;28;87607;-33
2023/01/01 08:56:03;;;;;;;3.22;2.30;;;12.60;99.90;;;;;;4996234;28;90958;-33
2023/01/01 08:58:29;;;;;;;;;;;12.60;99.90;;;;;;5016714;28;89092;-33
2023/01/01 09:00:54;;;;;;;6.57;3.35;;;12.60;99.90;;;;;;5015278;28;88998;-35
2023/01/01 09:03:20;;;;;;;3.85;2.20;;;12.60;99.90;;;;;;5014491;28;87965;-32
2023/01/01 09:05:46;;;;;;;18.67;3.17;;;12.50;99.90;;;;;;5013918;28;90124;-33
2023/01/01 09:08:12;;;;;;;5.25;2.20;;;12.60;99.90;;;;;;5014351;28;89783;-33
2023/01/01 09:10:38;;;;;;;4.13;2.08;;;12.50;99.90;;;;;;5013250;28;89732;-33
2023/01/01 09:13:04;;;;;;;7.60;2.53;;;12.60;99.90;;;;;;5013695;28;87959;-33
2023/01/01 09:15:30;;;;;;;7.85;2.45;;;12.50;99.90;;;;;;5013153;28;90320;-33
2023/01/01 09:17:55;;;;;;;4.43;2.50;;;12.50;99.90;;;;;;5013384;28;89549;-33
2023/01/01 09:20:21;;;;;;;3.97;2.05;;;12.60;99.90;;;;;;5025739;28;88434;-32
2023/01/01 09:22:47;;;;;;;3.47;1.80;;;12.60;99.90;;;;;;5013074;28;87636;-33
2023/01/01 09:25:12;;;;;;;9.85;3.25;;;12.50;99.90;;;;;;5012328;28;89623;-33
2023/01/01 09:27:38;;;;;;;6.28;2.70;;;12.50;99.90;;;;;;5024240;28;89289;-33
2023/01/01 09:30:04;;;;;;;6.18;2.63;;;12.50;99.90;;;;;;5016217;28;89244;-32
2023/01/01 09:32:30;;;;;;;8.13;2.80;;;12.50;99.90;;;;;;5005466;28;88730;-34
2023/01/01 09:34:56;;;;;;;6.88;2.58;;;12.50;99.90;;;;;;5049662;22;90820;-32
2023/01/01 09:37:23;;;;;;;15.17;2.60;;;12.60;99.90;;;;;;4982147;28;89423;-33
2023/01/01 09:39:49;;;;;;;16.95;3.30;;;12.70;99.90;;;;;;4994086;28;90636;-33
2023/01/01 09:42:33;;;;;;;11.60;2.95;;;12.60;99.90;;;;;;4997934;28;87894;-34
2023/01/01 09:45:25;;;;;;;8.52;2.50;;;12.70;99.90;;;;;;5000807;28;90425;-33
2023/01/01 09:47:58;;;;;;;4.95;2.67;;;12.70;99.90;;;;;;4992722;28;89450;-33
2023/01/01 09:50:32;;;;;;;5.95;2.60;;;12.70;99.90;;;;;;4995573;28;89401;-33
2023/01/01 09:53:33;;;;;;;8.63;3.20;;;12.70;99.90;;;;;;5003994;28;88078;-33
2023/01/01 09:56:01;;;;;;;7.68;2.72;;;12.70;99.90;;;;;;4970552;28;90568;-34
2023/01/01 09:58:32;;;;;;;7.73;3.07;;;12.70;99.90;;;;;;4985118;28;88603;-35
2023/01/01 10:01:15;;;;;;;5.50;2.38;;;12.70;99.90;;;;;;4984754;28;89240;-33
2023/01/01 10:03:50;;;;;;;7.03;2.15;;;12.80;99.90;;;;;;4986934;28;89000;-32
2023/01/01 10:06:30;;;;;;;8.23;3.05;;;12.70;99.90;;;;;;4988345;28;88918;-34
2023/01/01 10:09:13;;;;;;;4.15;2.20;;;12.70;99.90;;;;;;4976123;28;88815;-34
2023/01/01 10:11:52;;;;;;;5.80;2.35;;;12.70;99.90;;;;;;4986523;28;91105;-32
2023/01/01 10:14:34;;;;;;;7.18;2.58;;;12.70;99.90;;;;;;4984013;28;89042;-33
2023/01/01 10:17:05;;;;;;;10.00;2.95;;;12.60;99.90;;;;;;4988640;28;90257;-32
2023/01/01 10:19:30;;;;;;;6.70;2.28;;;12.50;99.90;;;;;;4986321;28;89686;-35
2023/01/01 10:22:02;;;;;;;4.63;1.88;;;12.60;99.90;;;;;;4982833;28;89174;-35
2023/01/01 10:24:46;;;;;;;5.90;1.85;;;12.50;99.90;;;;;;4977150;28;89196;-34
2023/01/01 10:27:27;;;;;;;6.43;2.15;;;12.40;99.90;;;;;;4975977;28;90368;-34
2023/01/01 10:29:52;;;;;;;9.43;2.63;;;12.40;99.90;;;;;;4978608;28;91525;-35
2023/01/01 10:32:37;;;;;;;6.85;3.45;;;12.40;99.90;;;;;;4958278;28;89971;-36
2023/01/01 10:35:12;;;;;;;16.05;3.00;;;12.40;99.90;;;;;;4975270;28;88389;-37
2023/01/01 10:37:38;;;;;;;5.18;2.47;;;12.40;99.90;;;;;;4974716;28;90303;-37
2023/01/01 10:40:17;;;;;;;8.38;2.65;;;12.40;99.90;;;;;;4981688;28;89797;-35
2023/01/01 10:42:53;;;;;;;9.30;2.55;;;12.50;99.90;;;;;;4981546;28;88937;-35
2023/01/01 10:45:31;;;;;;;4.00;2.28;;;12.60;99.90;;;;;;4966623;28;88685;-35
2023/01/01 10:48:16;;;;;;;4.68;2.78;;;12.60;99.90;;;;;;4992718;28;90182;-36
2023/01/01 10:50:45;;;;;;;8.48;2.45;;;12.70;99.90;;;;;;4993164;28;89601;-34
2023/01/01 10:53:24;;;;;;;5.53;2.28;;;12.70;99.90;;;;;;4989484;28;89042;-37
2023/01/01 10:55:57;;;;;;;6.60;2.33;;;12.70;99.90;;;;;;4989733;28;89318;-35
2023/01/01 10:58:49;;;;;;;11.00;2.08;;;12.70;99.90;;;;;;4994007;28;89328;-35
2023/01/01 11:01:19;;;;;;;8.90;2.72;;;12.70;99.90;;;;;;4992903;28;89791;-36
2023/01/01 11:04:12;;;;;;;7.35;2.00;;;12.70;99.90;;;;;;4992671;28;89429;-35
2023/01/01 11:06:45;;;;;;;8.20;2.50;;;12.70;99.90;;;;;;4974171;28;88396;-34
2023/01/01 11:09:35;;;;;;;6.38;2.58;;;12.80;99.90;;;;;;4993624;28;89880;-36
2023/01/01 11:12:06;;;;;;;7.65;2.78;;;12.80;99.90;;;;;;4982474;28;89388;-35
2023/01/01 11:14:49;;;;;;;3.30;1.83;;;12.80;99.90;;;;;;4993406;28;89454;-34
2023/01/01 11:17:24;;;;;;;6.07;2.15;;;12.90;99.90;;;;;;4993627;28;88368;-33
2023/01/01 11:19:50;;;;;;;8.40;2.60;;;12.90;99.90;;;;;;4992999;28;90198;-34
2023/01/01 11:22:52;;;;;;;5.95;1.92;;;13.00;99.90;;;;;;4992756;28;90577;-35
2023/01/01 11:25:25;;;;;;;7.85;2.10;;;13.10;99.90;;;;;;4980066;28;90487;-33
2023/01/01 11:27:52;;;;;;;8.10;2.90;;;13.10;99.90;;;;;;4993362;28;88389;-35
2023/01/01 11:30:28;;;;;;;8.63;2.88;;;13.20;99.90;;;;;;4992836;28;90332;-34
2023/01/01 11:33:00;;;;;;;3.20;2.40;;;13.20;99.90;;;;;;5000787;28;89327;-34
2023/01/01 11:35:32;;;;;;;7.00;2.88;;;13.30;99.90;;;;;;4990042;28;89995;-33
2023/01/01 11:37:58;;;;;;;8.63;2.22;;;13.30;99.90;;;;;;4988256;28;88519;-34
2023/01/01 11:40:36;;;;;;;8.40;2.45;;;13.40;99.90;;;;;;4989973;28;88661;-33
2023/01/01 11:43:03;;;;;;;;;;;13.40;99.90;;;;;;4989337;28;89789;-36
2023/01/01 11:45:37;;;;;;;6.00;2.50;;;13.40;99.90;;;;;;4992443;28;88699;-33
2023/01/01 11:48:12;;;;;;;16.90;3.80;;;13.30;99.90;;;;;;4993208;28;89000;-33
2023/01/01 11:50:39;;;;;;;6.90;2.50;;;13.30;99.90;;;;;;4999835;28;88960;-32
2023/01/01 11:53:23;;;;;;;7.87;2.53;;;13.30;99.90;;;;;;4991147;28;89852;-32
2023/01/01 11:56:01;;;;;;;18.98;1.95;;;13.30;99.90;;;;;;4986142;28;90231;-35
2023/01/01 11:58:34;;;;;;;7.43;2.60;;;13.30;99.90;;;;;;4983175;28;88897;-35
2023/01/01 12:01:07;;;;;;;8.63;2.45;;;13.30;99.90;;;;;;4983876;28;90226;-32
2023/01/01 12:04:01;;;;;;;9.43;2.15;;;13.30;99.90;;;;;;4990981;28;89901;-33
2023/01/01 12:06:32;;;;;;;6.00;2.78;;;13.30;99.90;;;;;;4983667;28;89408;-34
2023/01/01 12:09:09;;;;;;;6.40;3.40;;;13.30;99.90;;;;;;4981443;28;88726;-34
2023/01/01 12:11:44;;;;;;;7.27;2.07;;;13.30;99.90;;;;;;4979617;28;88620;-37
2023/01/01 12:14:33;;;;;;;7.82;3.67;;;13.40;99.90;;;;;;4986442;28;89886;-33
2023/01/01 12:17:06;;;;;;;6.35;2.65;;;13.40;99.90;;;;;;4990692;28;90654;-33
2023/01/01 12:19:34;;;;;;;7.60;2.63;;;13.40;99.90;;;;;;4982841;28;88745;-33
2023/01/01 12:22:00;;;;;;;;;;;13.50;99.90;;;;;;4989818;28;90248;-34
2023/01/01 12:24:33;;;;;;;8.05;3.17;;;13.40;99.90;;;;;;4982338;28;90274;-32
2023/01/01 12:27:17;;;;;;;8.57;2.70;;;13.30;99.90;;;;;;4965976;28;89064;-35
2023/01/01 12:30:09;;;;;;;7.00;2.97;;;13.10;99.90;;;;;;4979947;28;88556;-34
2023/01/01 12:33:16;;;;;;;6.93;3.30;;;13.10;99.90;;;;;;4979343;28;90207;-35
2023/01/01 12:36:03;;;;;;;12.47;2.97;;;12.90;99.90;;;;;;4978722;28;88982;-33
2023/01/01 12:39:02;;;;;;;7.25;2.90;;;13.00;99.90;;;;;;4985740;28;89633;-33
2023/01/01 12:41:45;;;;;;;8.02;2.30;;;12.90;99.90;;;;;;4990836;28;89411;-33
2023/01/01 12:44:37;;;;;;;10.55;3.40;;;12.90;99.90;;;;;;4987737;28;90335;-33
2023/01/01 12:47:19;;;;;;;8.98;2.58;;;12.80;99.90;;;;;;4991666;28;89919;-33
2023/01/01 12:50:09;;;;;;;6.00;2.70;;;12.70;99.90;;;;;;4989989;28;89891;-35
2023/01/01 12:52:48;;;;;;;2.83;2.08;;;12.70;99.90;;;;;;4986354;28;89314;-34
2023/01/01 12:55:48;;;;;;;7.13;2.47;;;12.70;99.90;;;;;;4998738;28;89798;-34
2023/01/01 12:58:29;;;;;;;12.82;2.85;;;12.60;99.90;;;;;;4991556;28;89103;-34
2023/01/01 13:01:16;;;;;;;10.93;2.17;;;12.60;99.90;;;;;;4989072;28;89740;-34
2023/01/01 13:03:52;;;;;;;7.20;2.73;;;12.50;99.90;;;;;;4991262;28;88493;-33